Time;durP1;ratioP1;P1;durP2;ratioP2;P2;SDS_P1;SDS_P2;PMS_P1;PMS_P2;Temp;Humidity;BMP_temperature;BMP_pressure;BME280_temperature;BME280_humidity;BME280_pressure;Samples;Min_cycle;Max_cycle;Signal;HPM_P1;HPM_P2
2021/06/04 00:00:13;;;;;;;;;0.00;0.00;;;;;21.20;63.19;101389.13;5043018;28;45296;-58
2021/06/04 00:02:39;;;;;;;;;0.00;0.00;;;;;21.20;62.56;101389.13;5042891;28;45504;-59
2021/06/04 00:05:06;;;;;;;;;0.00;0.00;;;;;21.20;62.68;101402.47;5031129;28;45252;-59
2021/06/04 00:07:31;;;;;;;;;0.00;0.00;;;;;21.22;62.45;101397.81;5042452;28;46628;-59
2021/06/04 00:09:57;;;;;;;;;0.00;0.00;;;;;21.23;62.22;101394.09;5043059;28;45307;-59
2021/06/04 00:12:22;;;;;;;;;0.00;0.00;;;;;21.23;62.39;101396.78;5042716;28;45351;-59
2021/06/04 00:14:48;;;;;;;;;0.00;0.00;;;;;21.23;63.77;101404.78;5043205;28;45387;-59
2021/06/04 00:17:18;;;;;;;;;0.00;0.00;;;;;21.19;62.81;101408.84;5042430;28;45748;-59
2021/06/04 00:19:44;;;;;;;;;0.00;0.00;;;;;21.15;65.06;101419.03;5042459;28;45466;-60
2021/06/04 00:22:19;;;;;;;;;0.00;0.00;;;;;21.18;62.68;101425.88;5042526;28;45509;-59
2021/06/04 00:24:47;;;;;;;;;0.00;0.00;;;;;21.20;62.80;101422.00;5042703;28;45309;-59
2021/06/04 00:27:13;;;;;;;;;0.00;0.00;;;;;21.21;63.24;101433.53;5042690;28;45505;-59
2021/06/04 00:29:41;;;;;;;;;0.00;0.00;;;;;21.24;63.43;101444.72;5024434;28;46244;-59
2021/06/04 00:32:07;;;;;;;;;0.00;0.00;;;;;21.32;63.01;101446.53;5042955;28;45354;-59
2021/06/04 00:34:32;;;;;;;;;0.00;0.00;;;;;21.32;62.92;101435.84;5042458;28;45458;-59
2021/06/04 00:36:58;;;;;;;;;0.00;0.00;;;;;21.29;63.82;101434.34;5042515;28;45307;-59
2021/06/04 00:39:28;;;;;;;;;0.00;0.00;;;;;21.37;63.24;101438.00;5042346;28;45387;-59
2021/06/04 00:42:00;;;;;;;;;0.00;0.00;;;;;21.41;63.53;101437.50;5042718;28;45265;-59
2021/06/04 00:44:27;;;;;;;;;0.00;0.00;;;;;21.44;62.56;101442.47;5042504;28;45265;-59
2021/06/04 00:46:53;;;;;;;;;0.00;0.00;;;;;21.45;63.55;101441.50;5042450;28;45348;-59
2021/06/04 00:49:18;;;;;;;;;0.00;0.00;;;;;21.46;64.20;101445.81;5023740;28;45379;-59
2021/06/04 00:51:46;;;;;;;;;0.00;0.00;;;;;21.42;63.75;101449.84;5042382;28;45236;-59
2021/06/04 00:54:13;;;;;;;;;0.00;0.00;;;;;21.38;63.26;101443.19;5042231;28;45581;-59
2021/06/04 00:56:40;;;;;;;;;0.00;0.00;;;;;21.36;63.40;101453.19;5042165;28;46357;-59
2021/06/04 00:59:09;;;;;;;;;0.00;0.00;;;;;21.33;63.52;101455.38;5041775;28;45241;-59
2021/06/04 01:01:36;;;;;;;;;0.00;0.00;;;;;21.31;63.60;101469.72;5041989;28;45365;-59
2021/06/04 01:04:09;;;;;;;;;0.00;0.00;;;;;21.36;63.37;101484.41;5048478;28;45560;-58
2021/06/04 01:06:49;;;;;;;;;0.00;0.00;;;;;21.40;63.43;101517.81;5041684;28;46317;-59
2021/06/04 01:09:45;;;;;;;;;0.00;0.00;;;;;21.46;62.93;101539.34;5041798;28;45347;-59
2021/06/04 01:12:44;;;;;;;;;0.00;0.00;;;;;21.48;63.67;101520.50;5041760;28;45254;-59
2021/06/04 01:15:31;;;;;;;;;0.00;0.00;;;;;21.41;63.83;101498.97;5042072;28;45231;-59
2021/06/04 01:18:19;;;;;;;;;0.00;0.00;;;;;21.38;64.30;101485.94;5040614;28;45789;-59
2021/06/04 01:20:51;;;;;;;;;0.00;0.00;;;;;21.40;64.00;101493.75;5049149;28;45462;-59
2021/06/04 01:23:26;;;;;;;;;0.00;0.00;;;;;21.46;63.86;101499.28;5061864;28;45429;-59
2021/06/04 01:26:00;;;;;;;;;0.00;0.00;;;;;21.48;63.62;101478.56;5062364;28;45331;-59
2021/06/04 01:28:32;;;;;;;;;0.00;0.00;;;;;21.47;64.24;101468.88;5061394;28;46710;-59
2021/06/04 01:31:26;;;;;;;;;0.00;0.00;;;;;21.46;64.25;101472.53;5061603;28;45239;-59
2021/06/04 01:34:08;;;;;;;;;0.00;0.00;;;;;21.38;64.33;101467.22;5058409;28;45460;-58
2021/06/04 01:36:48;;;;;;;;;0.00;0.00;;;;;21.34;64.82;101451.69;5061838;28;45318;-59
2021/06/04 01:39:17;;;;;;;;;0.00;0.00;;;;;21.28;64.50;101461.25;5061369;28;45318;-59
2021/06/04 01:41:46;;;;;;;;;0.00;0.00;;;;;21.24;64.99;101466.09;5061497;28;45407;-59
2021/06/04 01:44:24;;;;;;;;;0.00;0.00;;;;;21.26;64.75;101471.25;5061418;28;45489;-59
2021/06/04 01:46:53;;;;;;;;;0.00;0.00;;;;;21.29;64.60;101468.22;5061873;28;45402;-59
2021/06/04 01:49:24;;;;;;;;;0.00;0.00;;;;;21.27;64.51;101467.56;5061124;28;45378;-59
2021/06/04 01:51:58;;;;;;;;;0.00;0.00;;;;;21.21;64.62;101457.56;5061774;28;45214;-59
2021/06/04 01:54:31;;;;;;;;;0.00;0.00;;;;;21.17;64.69;101456.28;5061495;28;45234;-59
2021/06/04 01:57:03;;;;;;;;;0.00;0.00;;;;;21.13;64.90;101447.75;5049877;28;45273;-59
2021/06/04 01:59:41;;;;;;;;;0.00;0.00;;;;;21.06;64.92;101441.44;5040860;28;46528;-59
2021/06/04 02:02:08;;;;;;;;;0.00;0.00;;;;;21.02;65.28;101442.78;5040717;28;45507;-59
2021/06/04 02:04:41;;;;;;;;;0.00;0.00;;;;;21.00;64.75;101450.13;5048160;28;45319;-58
2021/06/04 02:07:10;;;;;;;;;0.00;0.00;;;;;21.01;64.91;101449.09;5041363;28;45427;-59
2021/06/04 02:09:36;;;;;;;;;0.00;0.00;;;;;21.02;64.58;101440.94;5041107;28;46406;-59
2021/06/04 02:12:03;;;;;;;;;0.00;0.00;;;;;21.04;64.02;101438.94;5040872;28;45326;-59
2021/06/04 02:14:35;;;;;;;;;0.00;0.00;;;;;21.01;64.49;101433.09;5041120;28;45403;-59
2021/06/04 02:17:28;;;;;;;;;0.00;0.00;;;;;20.96;64.00;101416.75;5041133;28;45347;-59
2021/06/04 02:19:56;;;;;;;;;0.00;0.00;;;;;20.90;64.01;101423.59;5040677;28;45552;-59
2021/06/04 02:22:25;;;;;;;;;0.00;0.00;;;;;20.81;64.30;101425.44;5040990;28;45342;-59
2021/06/04 02:25:35;;;;;;;;;0.00;0.00;;;;;20.75;64.18;101431.47;5040906;28;45245;-58
2021/06/04 02:28:12;;;;;;;;;0.00;0.00;;;;;20.74;64.48;101432.47;5025813;28;45440;-59
2021/06/04 02:30:54;;;;;;;;;0.00;0.00;;;;;20.73;64.49;101437.97;5044323;28;46365;-59
2021/06/04 02:33:31;;;;;;;;;0.00;0.00;;;;;20.74;64.32;101455.69;5043902;28;45273;-58
2021/06/04 02:36:11;;;;;;;;;0.00;0.00;;;;;20.73;64.26;101470.84;5044396;28;45313;-59
2021/06/04 02:38:42;;;;;;;;;0.00;0.00;;;;;20.79;64.26;101499.53;5044478;28;45624;-58
2021/06/04 02:41:25;;;;;;;;;0.00;0.00;;;;;20.81;64.13;101521.56;5043945;28;46377;-59
2021/06/04 02:43:56;;;;;;;;;0.00;0.00;;;;;20.89;64.57;101520.75;5043888;28;45371;-58
2021/06/04 02:46:24;;;;;;;;;0.00;0.00;;;;;20.95;64.00;101520.06;5044049;28;45233;-59
2021/06/04 02:48:51;;;;;;;;;0.00;0.00;;;;;21.00;63.71;101504.38;5043956;28;45241;-59
2021/06/04 02:51:31;;;;;;;;;0.00;0.00;;;;;21.02;63.84;101491.69;5043954;28;46513;-59
2021/06/04 02:54:11;;;;;;;;;0.00;0.00;;;;;20.99;64.57;101494.69;5043886;28;45262;-58
2021/06/04 02:56:41;;;;;;;;;0.00;0.00;;;;;20.97;64.15;101501.19;5027801;28;45451;-59
2021/06/04 02:59:17;;;;;;;;;0.00;0.00;;;;;20.94;64.03;101515.72;5043780;28;45548;-59
2021/06/04 03:01:47;;;;;;;;;0.00;0.00;;;;;20.95;64.49;101552.13;5043732;28;45422;-59
2021/06/04 03:04:15;;;;;;;;;0.00;0.00;;;;;20.96;64.74;101571.63;5050243;28;45418;-59
2021/06/04 03:06:45;;;;;;;;;0.00;0.00;;;;;20.90;64.88;101563.28;5044022;28;45328;-59
2021/06/04 03:09:14;;;;;;;;;0.00;0.00;;;;;20.85;64.92;101549.59;5043818;28;45291;-59
2021/06/04 03:11:42;;;;;;;;;0.00;0.00;;;;;20.76;66.53;101545.28;5043714;28;46215;-59
2021/06/04 03:14:08;;;;;;;;;0.00;0.00;;;;;20.40;85.48;101470.81;5025997;28;45360;-59
2021/06/04 03:16:34;;;;;;;;;0.00;0.00;;;;;19.91;91.33;101454.72;5043436;28;45298;-59
2021/06/04 03:19:07;;;;;;;;;0.00;0.00;;;;;19.68;91.99;101434.00;5043553;28;45308;-59
2021/06/04 03:21:46;;;;;;;;;0.00;0.00;;;;;19.60;91.79;101422.47;5026130;28;46215;-59
2021/06/04 03:24:15;;;;;;;;;0.00;0.00;;;;;19.47;91.35;101410.44;5043461;28;45379;-59
2021/06/04 03:26:41;;;;;;;;;0.00;0.00;;;;;19.52;78.99;101393.13;5043519;28;45298;-59
2021/06/04 03:29:10;;;;;;;;;0.00;0.00;;;;;19.54;76.72;101383.16;5043488;28;45241;-59
2021/06/04 03:31:40;;;;;;;;;0.00;0.00;;;;;19.54;77.07;101377.81;5043242;28;46034;-59
2021/06/04 03:34:07;;;;;;;;;0.00;0.00;;;;;19.55;77.63;101385.66;5042845;28;45187;-59
2021/06/04 03:36:37;;;;;;;;;0.00;0.00;;;;;19.52;76.83;101390.47;5043344;28;45267;-59
2021/06/04 03:39:06;;;;;;;;;0.00;0.00;;;;;19.40;75.34;101390.78;5043497;28;45450;-59
2021/06/04 03:41:34;;;;;;;;;0.00;0.00;;;;;19.30;75.93;101379.41;5042125;28;46382;-59
2021/06/04 03:44:01;;;;;;;;;0.75;0.00;;;;;19.24;76.64;101370.25;5043101;28;45334;-58
2021/06/04 03:46:26;;;;;;;;;0.00;0.00;;;;;19.16;77.28;101390.69;5043195;28;45510;-59
2021/06/04 03:48:52;;;;;;;;;0.00;0.00;;;;;19.01;77.45;101390.44;5043139;28;45288;-59
2021/06/04 03:51:24;;;;;;;;;0.00;0.00;;;;;18.91;76.30;101369.25;5042812;28;45400;-59
2021/06/04 03:53:49;;;;;;;;;0.25;0.25;;;;;18.84;76.95;101369.03;5042992;28;45415;-58
2021/06/04 03:56:16;;;;;;;;;0.00;0.00;;;;;18.77;75.53;101364.50;5042908;28;45242;-58
2021/06/04 03:58:42;;;;;;;;;0.00;0.00;;;;;18.68;76.70;101357.44;5042954;28;46115;-58
2021/06/04 04:01:12;;;;;;;;;0.00;0.00;;;;;18.63;76.70;101352.59;5042591;28;46111;-58
2021/06/04 04:03:38;;;;;;;;;0.00;0.00;;;;;18.67;76.01;101350.47;5049129;28;45288;-59
2021/06/04 04:06:04;;;;;;;;;0.00;0.00;;;;;18.71;75.26;101351.81;5042871;28;45314;-59
2021/06/04 04:08:30;;;;;;;;;0.00;0.00;;;;;18.70;75.49;101340.31;5042901;28;45244;-59
2021/06/04 04:10:57;;;;;;;;;0.00;0.00;;;;;18.76;76.00;101333.53;5042665;28;46137;-59
2021/06/04 04:13:23;;;;;;;;;0.00;0.00;;;;;18.80;75.25;101340.25;5042655;28;45346;-59
2021/06/04 04:15:50;;;;;;;;;0.00;0.00;;;;;18.85;74.92;101349.44;5042717;28;45362;-59
2021/06/04 04:18:15;;;;;;;;;0.00;0.00;;;;;18.92;73.46;101349.63;5042460;28;45239;-59
2021/06/04 04:20:45;;;;;;;;;0.00;0.00;;;;;18.97;73.56;101346.50;5042538;28;46453;-58
2021/06/04 04:23:29;;;;;;;;;0.00;0.00;;;;;19.02;73.04;101350.31;5024388;28;45492;-58
2021/06/04 04:25:55;;;;;;;;;0.00;0.00;;;;;19.11;72.90;101342.38;5042554;28;45161;-58
2021/06/04 04:28:29;;;;;;;;;0.00;0.00;;;;;19.20;72.59;101344.94;5042253;28;45383;-58
2021/06/04 04:30:55;;;;;;;;;0.00;0.00;;;;;19.27;72.35;101345.94;5042109;28;45262;-58
2021/06/04 04:33:22;;;;;;;;;0.00;0.00;;;;;19.37;71.73;101345.81;5056649;28;45339;-57
2021/06/04 04:35:48;;;;;;;;;0.00;0.00;;;;;19.41;70.84;101344.47;5050942;28;45499;-58
2021/06/04 04:38:20;;;;;;;;;0.00;0.00;;;;;19.40;71.39;101334.84;5042019;28;45685;-58
2021/06/04 04:40:45;;;;;;;;;0.00;0.00;;;;;19.43;70.90;101328.34;5042052;28;46262;-58
2021/06/04 04:43:11;;;;;;;;;0.00;0.00;;;;;19.40;70.79;101326.00;5041879;28;45346;-58
2021/06/04 04:45:37;;;;;;;;;0.00;0.00;;;;;19.39;70.04;101334.97;5042158;28;45355;-58
2021/06/04 04:48:05;;;;;;;;;0.00;0.00;;;;;19.37;69.85;101344.97;5041479;28;45633;-58
2021/06/04 04:50:31;;;;;;;;;0.00;0.00;;;;;19.38;70.16;101344.81;5041601;28;47314;-59
2021/06/04 04:52:56;;;;;;;;;0.00;0.00;;;;;19.49;70.18;101345.50;5040516;28;45279;-58
2021/06/04 04:55:24;;;;;;;;;0.00;0.00;;;;;19.55;69.13;101326.22;5041915;28;45288;-58
2021/06/04 04:57:50;;;;;;;;;0.00;0.00;;;;;19.70;68.80;101323.75;5041852;28;45525;-59
2021/06/04 05:00:20;;;;;;;;;0.00;0.00;;;;;19.80;68.33;101317.25;5023670;28;46010;-58
2021/06/04 05:02:46;;;;;;;;;0.00;0.00;;;;;19.83;68.48;101311.63;5041366;28;45465;-58
2021/06/04 05:05:14;;;;;;;;;0.00;0.00;;;;;19.87;68.63;101315.63;5048390;28;45207;-58
2021/06/04 05:07:39;;;;;;;;;0.00;0.00;;;;;19.97;67.93;101303.94;5042041;28;45402;-59
2021/06/04 05:10:06;;;;;;;;;0.00;0.00;;;;;20.04;67.92;101302.28;5041372;28;45362;-58
2021/06/04 05:12:34;;;;;;;;;0.00;0.00;;;;;20.06;68.43;101301.13;5041544;28;45292;-58
2021/06/04 05:14:59;;;;;;;;;0.00;0.00;;;;;20.22;67.85;101326.13;5041596;28;45375;-58
2021/06/04 05:17:24;;;;;;;;;0.00;0.00;;;;;20.37;67.24;101375.13;5041855;28;45480;-59
2021/06/04 05:19:50;;;;;;;;;0.00;0.00;;;;;20.55;66.42;101472.84;5041285;28;45539;-58
2021/06/04 05:22:16;;;;;;;;;0.00;0.00;;;;;20.58;65.96;101500.06;5041307;28;45263;-59
2021/06/04 05:24:41;;;;;;;;;0.00;0.00;;;;;20.49;66.31;101471.66;5041586;28;45402;-59
2021/06/04 05:27:07;;;;;;;;;0.00;0.00;;;;;20.48;65.50;101494.00;5041512;28;45246;-59
2021/06/04 05:29:33;;;;;;;;;0.00;0.00;;;;;20.48;67.07;101486.00;5040721;28;45358;-59
2021/06/04 05:31:59;;;;;;;;;0.00;0.00;;;;;20.43;67.64;101493.66;5041215;28;45177;-59
2021/06/04 05:34:25;;;;;;;;;0.00;0.00;;;;;20.36;68.07;101492.66;5040674;28;45340;-59
2021/06/04 05:36:50;;;;;;;;;0.00;0.00;;;;;20.29;69.04;101505.81;5041597;28;45234;-59
2021/06/04 05:39:21;;;;;;;;;0.00;0.00;;;;;20.20;68.48;101528.97;5040833;28;45453;-59
2021/06/04 05:41:52;;;;;;;;;0.00;0.00;;;;;20.12;68.46;101522.78;5040483;28;45217;-59
2021/06/04 05:44:21;;;;;;;;;0.00;0.00;;;;;20.09;73.27;101521.28;5040645;28;45267;-59
2021/06/04 05:46:49;;;;;;;;;0.00;0.00;;;;;19.95;72.17;101538.72;5041221;28;45572;-59
2021/06/04 05:49:15;;;;;;;;;0.00;0.00;;;;;19.84;70.62;101545.19;5040110;28;46383;-59
2021/06/04 05:51:41;;;;;;;;;0.00;0.00;;;;;19.72;70.27;101530.50;5022777;28;45200;-59
2021/06/04 05:54:06;;;;;;;;;0.00;0.00;;;;;19.74;71.85;101536.50;5040572;28;45328;-59
2021/06/04 05:56:32;;;;;;;;;0.00;0.00;;;;;19.74;80.18;101514.31;5040727;28;45440;-59
2021/06/04 05:58:57;;;;;;;;;0.00;0.00;;;;;19.66;75.37;101501.78;5040299;28;45538;-59
2021/06/04 06:01:29;;;;;;;;;0.00;0.00;;;;;19.56;72.17;101498.41;5022261;28;45599;-59
2021/06/04 06:03:54;;;;;;;;;0.00;0.00;;;;;19.45;70.56;101481.69;5046795;28;45326;-59
2021/06/04 06:06:20;;;;;;;;;0.00;0.00;;;;;19.42;70.60;101481.19;5041145;28;45197;-59
2021/06/04 06:08:46;;;;;;;;;0.00;0.00;;;;;19.41;71.09;101483.00;5039957;28;45325;-59
2021/06/04 06:11:13;;;;;;;;;0.00;0.00;;;;;19.42;71.02;101471.38;5040109;28;45347;-59
2021/06/04 06:13:39;;;;;;;;;0.00;0.00;;;;;19.41;70.68;101477.66;5040356;28;45501;-59
2021/06/04 06:16:06;;;;;;;;;0.00;0.00;;;;;19.42;70.71;101483.84;5040601;28;45426;-59
2021/06/04 06:18:32;;;;;;;;;0.00;0.00;;;;;19.42;70.49;101470.53;5039669;28;45748;-59
2021/06/04 06:20:58;;;;;;;;;0.00;0.00;;;;;19.43;70.27;101467.69;5040184;28;45197;-59
2021/06/04 06:23:30;;;;;;;;;0.00;0.00;;;;;19.40;70.05;101468.03;5040235;28;46457;-59
2021/06/04 06:26:05;;;;;;;;;0.00;0.00;;;;;19.39;70.62;101468.16;5040579;28;45207;-59
2021/06/04 06:28:34;;;;;;;;;0.00;0.00;;;;;19.42;69.95;101459.88;5039066;28;46418;-59
2021/06/04 06:31:02;;;;;;;;;0.00;0.00;;;;;19.45;70.09;101447.06;5039987;28;45402;-59
2021/06/04 06:33:27;;;;;;;;;0.00;0.00;;;;;19.49;70.25;101444.09;5039783;28;45244;-59
2021/06/04 06:35:57;;;;;;;;;0.00;0.00;;;;;19.46;70.21;101446.06;5039445;28;45340;-59
2021/06/04 06:38:24;;;;;;;;;0.00;0.00;;;;;19.39;70.36;101441.53;5039166;28;45425;-60
2021/06/04 06:40:51;;;;;;;;;0.00;0.00;;;;;19.35;70.16;101432.19;5039513;28;45298;-58
2021/06/04 06:43:17;;;;;;;;;0.00;0.00;;;;;19.33;70.52;101426.19;5039533;28;45506;-59
2021/06/04 06:45:43;;;;;;;;;0.00;0.00;;;;;19.36;70.37;101416.06;5039841;28;45474;-60
2021/06/04 06:48:09;;;;;;;;;0.00;0.00;;;;;19.44;70.55;101417.94;5038781;28;45389;-59
2021/06/04 06:50:41;;;;;;;;;0.00;0.00;;;;;19.45;70.43;101428.41;5039567;28;45473;-60
2021/06/04 06:53:09;;;;;;;;;0.00;0.00;;;;;19.36;70.56;101425.88;5039666;28;45361;-60
2021/06/04 06:55:36;;;;;;;;;0.00;0.00;;;;;19.32;70.58;101438.69;5039403;28;45358;-60
2021/06/04 06:58:03;;;;;;;;;0.00;0.00;;;;;19.38;70.99;101451.38;5039508;28;46101;-60
2021/06/04 07:00:39;;;;;;;;;0.00;0.00;;;;;19.49;71.48;101463.56;5039011;28;45479;-59
2021/06/04 07:03:07;;;;;;;;;0.00;0.00;;;;;19.69;70.66;101477.47;5041462;28;45248;-59
2021/06/04 07:05:34;;;;;;;;;0.00;0.00;;;;;19.95;69.24;101484.56;5043631;28;45355;-60
2021/06/04 07:07:59;;;;;;;;;0.00;0.00;;;;;20.16;68.41;101484.13;5039239;28;46237;-60
2021/06/04 07:10:28;;;;;;;;;0.00;0.00;;;;;20.35;68.06;101486.50;5042262;28;45338;-60
2021/06/04 07:12:54;;;;;;;;;0.00;0.00;;;;;20.53;67.53;101478.31;5050013;28;45347;-60
2021/06/04 07:15:21;;;;;;;;;0.00;0.00;;;;;20.87;67.11;101469.34;5040826;28;45464;-60
2021/06/04 07:17:47;;;;;;;;;0.00;0.00;;;;;21.26;66.28;101482.78;5042761;28;46331;-60
2021/06/04 07:20:16;;;;;;;;;0.00;0.00;;;;;21.47;64.73;101474.22;5042780;28;45327;-58
2021/06/04 07:22:42;;;;;;;;;0.00;0.00;;;;;21.71;64.56;101469.78;5043230;28;45286;-59
2021/06/04 07:25:10;;;;;;;;;0.00;0.00;;;;;22.26;63.17;101463.44;5042792;28;45457;-59
2021/06/04 07:27:36;;;;;;;;;0.00;0.00;;;;;22.69;62.67;101476.31;5042556;28;45374;-60
2021/06/04 07:30:03;;;;;;;;;0.00;0.00;;;;;23.00;60.51;101470.88;5042136;28;45304;-58
2021/06/04 07:32:29;;;;;;;;;0.00;0.00;;;;;23.26;60.73;101466.91;5042195;28;45482;-59
2021/06/04 07:34:54;;;;;;;;;0.00;0.00;;;;;23.68;60.55;101466.22;5042437;28;45327;-60
2021/06/04 07:37:20;;;;;;;;;0.00;0.00;;;;;24.21;59.58;101468.69;5042699;28;46618;-60
2021/06/04 07:39:45;;;;;;;;;0.00;0.00;;;;;24.47;58.03;101469.94;5042243;28;45338;-59
2021/06/04 07:42:14;;;;;;;;;0.00;0.00;;;;;24.41;57.05;101462.69;5042363;28;45298;-59
2021/06/04 07:44:42;;;;;;;;;0.00;0.00;;;;;24.36;57.10;101468.59;5042708;28;45173;-60
2021/06/04 07:47:07;;;;;;;;;0.00;0.00;;;;;24.27;56.52;101467.91;5042324;28;45515;-59
2021/06/04 07:49:32;;;;;;;;;0.00;0.00;;;;;24.31;55.61;101471.03;5041280;28;45413;-59
2021/06/04 07:51:58;;;;;;;;;0.00;0.00;;;;;24.50;56.09;101474.97;5042422;28;45919;-59
2021/06/04 07:54:27;;;;;;;;;0.00;0.00;;;;;24.93;55.51;101472.22;5042419;28;45275;-60
2021/06/04 07:56:53;;;;;;;;;0.00;0.00;;;;;25.23;52.90;101463.97;5042118;28;46280;-59
2021/06/04 07:59:18;;;;;;;;;0.00;0.00;;;;;25.33;53.68;101461.72;5041713;28;45224;-59
2021/06/04 08:01:44;;;;;;;;;0.00;0.00;;;;;25.71;52.03;101450.50;5041820;28;45248;-59
2021/06/04 08:04:10;;;;;;;;;0.00;0.00;;;;;26.19;53.16;101448.56;5048050;28;45363;-59
2021/06/04 08:06:35;;;;;;;;;0.00;0.00;;;;;27.01;52.42;101446.47;5041988;28;47051;-60
2021/06/04 08:09:02;;;;;;;;;0.00;0.00;;;;;27.70;49.79;101440.66;5041337;28;45466;-60
2021/06/04 08:11:33;;;;;;;;;0.00;0.00;;;;;27.73;49.58;101437.50;5041560;28;45276;-59
2021/06/04 08:14:00;;;;;;;;;0.00;0.00;;;;;27.90;49.15;101435.16;5041737;28;45448;-60
2021/06/04 08:16:26;;;;;;;;;0.00;0.00;;;;;27.83;46.93;101438.69;5042198;28;46446;-59
2021/06/04 08:18:52;;;;;;;;;0.00;0.00;;;;;28.04;45.42;101444.84;5041709;28;45348;-59
2021/06/04 08:21:24;;;;;;;;;0.00;0.00;;;;;28.10;45.67;101435.88;5041922;28;45317;-59
2021/06/04 08:23:50;;;;;;;;;0.00;0.00;;;;;28.25;47.21;101443.66;5042090;28;45525;-59
2021/06/04 08:26:19;;;;;;;;;0.00;0.00;;;;;28.78;43.77;101439.69;5041700;28;45915;-58
2021/06/04 08:28:45;;;;;;;;;0.00;0.00;;;;;28.57;45.73;101449.00;5041417;28;45258;-60
2021/06/04 08:31:11;;;;;;;;;0.00;0.00;;;;;28.26;44.77;101439.91;5041933;28;45442;-59
2021/06/04 08:33:41;;;;;;;;;0.00;0.00;;;;;27.79;46.30;101440.16;5041745;28;45250;-59
2021/06/04 08:36:14;;;;;;;;;0.00;0.00;;;;;27.58;45.50;101437.78;5041748;28;46165;-59
2021/06/04 08:38:41;;;;;;;;;0.00;0.00;;;;;27.71;45.93;101451.22;5041606;28;45326;-59
2021/06/04 08:41:33;;;;;;;;;0.00;0.00;;;;;28.07;45.87;101452.50;5041147;28;45350;-59
2021/06/04 08:44:17;;;;;;;;;0.00;0.00;;;;;27.92;44.87;101449.25;5040869;28;45569;-59
2021/06/04 08:46:51;;;;;;;;;0.00;0.00;;;;;27.81;45.38;101453.44;5049670;28;45322;-59
2021/06/04 08:49:45;;;;;;;;;0.00;0.00;;;;;27.75;45.74;101443.50;5061084;28;45320;-59
2021/06/04 08:52:20;;;;;;;;;0.00;0.00;;;;;28.22;46.06;101454.88;5061224;28;45311;-58
2021/06/04 08:54:59;;;;;;;;;0.00;0.00;;;;;30.45;42.96;101446.47;5043586;28;45379;-60
2021/06/04 08:57:47;;;;;;;;;0.00;0.00;;;;;31.66;39.67;101449.41;5044385;28;45522;-59
2021/06/04 09:00:27;;;;;;;;;0.00;0.00;;;;;30.75;39.46;101443.66;5015420;28;45451;-60
2021/06/04 09:03:02;;;;;;;;;0.00;0.00;;;;;29.55;40.59;101448.19;5054659;28;45338;-59
2021/06/04 09:05:42;;;;;;;;;0.00;0.00;;;;;28.80;40.14;101457.31;5046448;28;45187;-59
2021/06/04 09:08:16;;;;;;;;;0.00;0.00;;;;;28.51;42.41;101461.56;5040923;28;47103;-59
2021/06/04 09:10:48;;;;;;;;;0.00;0.00;;;;;30.99;42.21;101460.75;5040623;28;45573;-58
2021/06/04 09:13:20;;;;;;;;;0.00;0.00;;;;;32.73;39.17;101463.19;5040844;28;45229;-60
2021/06/04 09:15:47;;;;;;;;;0.00;0.00;;;;;34.13;36.87;101453.69;5040604;28;45425;-60
2021/06/04 09:18:30;;;;;;;;;0.00;0.00;;;;;35.38;33.52;101456.91;5040457;28;45377;-59
2021/06/04 09:21:02;;;;;;;;;0.00;0.00;;;;;36.51;31.14;101455.13;5041065;28;45245;-61
2021/06/04 09:23:33;;;;;;;;;0.00;0.00;;;;;36.15;30.72;101460.63;5040792;28;45335;-59
2021/06/04 09:25:59;;;;;;;;;0.00;0.00;;;;;35.39;32.92;101456.66;5041258;28;45490;-60
2021/06/04 09:28:29;;;;;;;;;0.00;0.00;;;;;35.15;33.23;101464.47;5040512;28;45427;-59
2021/06/04 09:30:58;;;;;;;;;0.00;0.00;;;;;34.22;33.02;101462.22;5040530;28;45473;-59
2021/06/04 09:33:43;;;;;;;;;0.00;0.00;;;;;33.25;35.05;101468.25;5040310;28;45431;-60
2021/06/04 09:36:14;;;;;;;;;0.00;0.00;;;;;32.60;36.01;101458.09;5041058;28;45583;-60
2021/06/04 09:38:45;;;;;;;;;0.00;0.00;;;;;32.02;35.58;101465.53;5039719;28;45516;-59
2021/06/04 09:41:23;;;;;;;;;0.00;0.00;;;;;31.46;36.78;101466.09;5040708;28;45374;-60
2021/06/04 09:44:01;;;;;;;;;3.00;0.00;;;;;31.39;37.57;101468.09;5040562;28;45314;-61
2021/06/04 09:46:32;;;;;;;;;0.00;0.00;;;;;31.27;37.05;101467.31;5040634;28;45600;-60
2021/06/04 09:48:59;;;;;;;;;0.00;0.00;;;;;31.73;36.26;101468.25;5039932;28;46465;-60
2021/06/04 09:51:37;;;;;;;;;0.00;0.00;;;;;33.76;34.91;101468.03;5040348;28;45322;-59
2021/06/04 09:54:25;;;;;;;;;0.00;0.00;;;;;35.82;31.73;101473.72;5040527;28;45189;-60
2021/06/04 09:57:05;;;;;;;;;0.00;0.00;;;;;36.91;28.78;101483.53;5040728;28;45459;-59
2021/06/04 09:59:30;;;;;;;;;0.00;0.00;;;;;36.63;30.14;101480.31;5039439;28;45319;-59
2021/06/04 10:01:56;;;;;;;;;0.00;0.00;;;;;36.31;30.04;101464.19;5039864;28;45272;-60
2021/06/04 10:04:33;;;;;;;;;0.00;0.00;;;;;35.45;30.62;101473.88;5046532;28;45229;-59
2021/06/04 10:07:16;;;;;;;;;0.00;0.00;;;;;34.76;31.66;101485.81;5040138;28;45469;-59
2021/06/04 10:09:46;;;;;;;;;0.00;0.00;;;;;33.87;31.86;101488.03;5039398;28;46158;-59
2021/06/04 10:12:30;;;;;;;;;0.00;0.00;;;;;32.80;32.90;101482.03;5039404;28;45537;-60
2021/06/04 10:14:58;;;;;;;;;0.00;0.00;;;;;31.94;34.24;101483.03;5039598;28;45238;-59
2021/06/04 10:20:46;;;;;;;;;0.00;0.00;;;;;30.90;36.45;101474.91;5036269;28;46122;-59
2021/06/04 10:23:23;;;;;;;;;0.00;0.00;;;;;30.45;36.75;101481.69;5059025;28;45592;-60
2021/06/04 10:26:21;;;;;;;;;0.00;0.00;;;;;29.69;37.69;101480.50;5060279;28;45342;-60
2021/06/04 10:28:58;;;;;;;;;0.00;0.00;;;;;29.06;38.80;101482.44;5057407;28;45223;-60
2021/06/04 10:32:04;;;;;;;;;0.00;0.00;;;;;28.57;39.30;101484.16;5059328;28;45662;-59
2021/06/04 10:34:53;;;;;;;;;0.00;0.00;;;;;28.19;40.79;101480.47;5059404;28;45263;-60
2021/06/04 10:37:31;;;;;;;;;0.00;0.00;;;;;27.88;41.02;101481.25;5059795;28;45300;-60
2021/06/04 10:40:09;;;;;;;;;0.00;0.00;;;;;27.55;41.43;101484.91;5060185;28;45321;-59
2021/06/04 10:42:41;;;;;;;;;0.00;0.00;;;;;27.37;42.16;101484.78;5059336;28;46625;-59
2021/06/04 10:45:17;;;;;;;;;0.00;0.00;;;;;27.21;42.36;101494.13;5059696;28;45271;-59
2021/06/04 10:48:07;;;;;;;;;0.00;0.00;;;;;27.10;42.67;101495.59;5059418;28;45252;-59
2021/06/04 10:50:45;;;;;;;;;0.00;0.00;;;;;27.09;43.16;101495.81;5061087;28;45582;-59
2021/06/04 10:53:22;;;;;;;;;0.00;0.00;;;;;27.13;42.90;101492.50;5062677;28;45224;-59
2021/06/04 10:56:09;;;;;;;;;0.00;0.00;;;;;27.13;42.88;101487.09;5042360;28;45285;-60
2021/06/04 10:58:45;;;;;;;;;0.00;0.00;;;;;27.11;42.82;101491.88;5043269;28;45513;-59
2021/06/04 11:01:14;;;;;;;;;0.00;0.00;;;;;27.08;43.10;101488.75;5042237;28;45285;-59
2021/06/04 11:04:13;;;;;;;;;0.00;0.00;;;;;27.02;43.13;101490.44;5049397;28;45386;-59
2021/06/04 11:06:38;;;;;;;;;0.00;0.00;;;;;26.98;43.15;101495.41;5043150;28;45169;-59
2021/06/04 11:09:23;;;;;;;;;0.00;0.00;;;;;26.98;43.52;101497.28;5042895;28;45235;-59
2021/06/04 11:11:58;;;;;;;;;0.00;0.00;;;;;26.92;43.34;101495.44;5043483;28;45454;-59
2021/06/04 11:14:35;;;;;;;;;0.00;0.00;;;;;26.80;43.86;101496.06;5042806;28;45287;-60
2021/06/04 11:17:18;;;;;;;;;0.00;0.00;;;;;26.69;43.57;101487.78;5042742;28;45231;-59
2021/06/04 11:19:52;;;;;;;;;0.00;0.00;;;;;26.68;44.33;101486.13;5041839;28;45161;-60
2021/06/04 11:22:42;;;;;;;;;0.00;0.00;;;;;26.72;43.99;101482.81;5049186;28;45292;-59
2021/06/04 11:25:16;;;;;;;;;0.00;0.00;;;;;26.91;43.83;101481.13;5061927;28;47145;-60
2021/06/04 11:27:45;;;;;;;;;0.00;0.00;;;;;27.04;43.70;101471.34;5062394;28;45425;-60
2021/06/04 11:30:28;;;;;;;;;0.00;0.00;;;;;27.05;43.56;101473.84;5061518;28;45457;-59
2021/06/04 11:33:16;;;;;;;;;0.00;0.00;;;;;26.94;44.56;101485.28;5062043;28;45400;-59
2021/06/04 11:35:48;;;;;;;;;0.00;0.00;;;;;26.84;45.42;101488.38;5062478;28;45288;-58
2021/06/04 11:38:34;;;;;;;;;0.00;0.00;;;;;26.73;45.97;101483.63;5062163;28;45348;-59
2021/06/04 11:41:15;;;;;;;;;0.00;0.00;;;;;26.61;45.85;101478.06;5062012;28;45341;-60
2021/06/04 11:43:43;;;;;;;;;0.00;0.00;;;;;26.48;46.46;101478.84;5062201;28;45356;-60
2021/06/04 11:46:34;;;;;;;;;0.00;0.00;;;;;26.40;46.32;101487.94;5062045;28;46253;-60